sensor_id;sensor_type;location;lat;lon;timestamp;pressure;altitude;pressure_sealevel;temperature;humidity
20105;BME280;10212;42.714;23.310;2022-07-29T00:04:38;95450.59;;;19.18;80.60
20105;BME280;10212;42.714;23.310;2022-07-29T00:09:40;95467.88;;;19.03;81.05
20105;BME280;10212;42.714;23.310;2022-07-29T00:14:43;95461.34;;;19.11;81.00
20105;BME280;10212;42.714;23.310;2022-07-29T00:19:45;95464.38;;;19.20;79.96
20105;BME280;10212;42.714;23.310;2022-07-29T00:24:48;95458.78;;;19.16;80.41
20105;BME280;10212;42.714;23.310;2022-07-29T00:29:50;95461.75;;;18.97;81.75
20105;BME280;10212;42.714;23.310;2022-07-29T00:34:53;95454.84;;;18.96;81.84
20105;BME280;10212;42.714;23.310;2022-07-29T00:40:13;95464.78;;;18.84;82.25
20105;BME280;10212;42.714;23.310;2022-07-29T00:45:16;95477.03;;;18.73;82.38
20105;BME280;10212;42.714;23.310;2022-07-29T00:50:19;95463.69;;;18.40;84.18
20105;BME280;10212;42.714;23.310;2022-07-29T00:55:19;95473.94;;;18.02;85.65
20105;BME280;10212;42.714;23.310;2022-07-29T01:00:26;95462.09;;;18.04;84.62
20105;BME280;10212;42.714;23.310;2022-07-29T01:05:29;95458.34;;;18.00;85.55
20105;BME280;10212;42.714;23.310;2022-07-29T01:10:30;95457.63;;;18.05;84.87
20105;BME280;10212;42.714;23.310;2022-07-29T01:15:35;95451.06;;;17.90;85.80
20105;BME280;10212;42.714;23.310;2022-07-29T01:21:21;95443.00;;;17.97;85.44
20105;BME280;10212;42.714;23.310;2022-07-29T01:26:42;95432.06;;;17.88;86.28
20105;BME280;10212;42.714;23.310;2022-07-29T01:31:47;95434.19;;;18.08;86.15
20105;BME280;10212;42.714;23.310;2022-07-29T01:36:56;95422.59;;;18.10;85.80
20105;BME280;10212;42.714;23.310;2022-07-29T01:42:14;95425.66;;;18.01;86.30
20105;BME280;10212;42.714;23.310;2022-07-29T01:47:19;95436.69;;;17.64;88.28
20105;BME280;10212;42.714;23.310;2022-07-29T01:52:52;95429.81;;;17.63;88.71
20105;BME280;10212;42.714;23.310;2022-07-29T01:57:57;95431.97;;;17.66;89.04
20105;BME280;10212;42.714;23.310;2022-07-29T02:03:02;95422.31;;;17.89;88.07
20105;BME280;10212;42.714;23.310;2022-07-29T02:08:06;95410.94;;;18.05;87.27
20105;BME280;10212;42.714;23.310;2022-07-29T02:13:10;95419.03;;;17.81;88.26
20105;BME280;10212;42.714;23.310;2022-07-29T02:18:15;95419.28;;;17.80;89.09
20105;BME280;10212;42.714;23.310;2022-07-29T02:23:22;95405.03;;;17.98;87.68
20105;BME280;10212;42.714;23.310;2022-07-29T02:28:26;95409.34;;;18.44;85.37
20105;BME280;10212;42.714;23.310;2022-07-29T02:33:27;95394.97;;;19.30;81.33
20105;BME280;10212;42.714;23.310;2022-07-29T02:38:31;95372.00;;;19.08;82.13
20105;BME280;10212;42.714;23.310;2022-07-29T02:43:55;95388.00;;;18.46;85.67
20105;BME280;10212;42.714;23.310;2022-07-29T02:49:02;95393.19;;;18.18;86.68
20105;BME280;10212;42.714;23.310;2022-07-29T02:54:06;95396.22;;;18.27;86.04
20105;BME280;10212;42.714;23.310;2022-07-29T02:59:10;95392.41;;;18.62;84.58
20105;BME280;10212;42.714;23.310;2022-07-29T03:04:12;95390.13;;;18.26;86.55
20105;BME280;10212;42.714;23.310;2022-07-29T03:09:13;95392.28;;;18.29;86.42
20105;BME280;10212;42.714;23.310;2022-07-29T03:14:15;95387.91;;;18.63;84.65
20105;BME280;10212;42.714;23.310;2022-07-29T03:19:16;95391.59;;;18.00;87.35
20105;BME280;10212;42.714;23.310;2022-07-29T03:24:33;95390.16;;;17.92;88.62
20105;BME280;10212;42.714;23.310;2022-07-29T03:29:34;95396.19;;;18.10;86.93
20105;BME280;10212;42.714;23.310;2022-07-29T03:34:36;95391.41;;;18.06;87.01
20105;BME280;10212;42.714;23.310;2022-07-29T03:39:40;95393.34;;;18.11;87.16
20105;BME280;10212;42.714;23.310;2022-07-29T03:44:41;95400.56;;;17.81;88.71
20105;BME280;10212;42.714;23.310;2022-07-29T03:49:44;95410.72;;;17.90;88.76
20105;BME280;10212;42.714;23.310;2022-07-29T03:54:47;95405.28;;;18.14;88.01
20105;BME280;10212;42.714;23.310;2022-07-29T03:59:50;95414.94;;;18.25;87.04
20105;BME280;10212;42.714;23.310;2022-07-29T04:04:53;95418.47;;;18.36;86.57
20105;BME280;10212;42.714;23.310;2022-07-29T04:09:53;95417.41;;;18.54;85.84
20105;BME280;10212;42.714;23.310;2022-07-29T04:14:54;95410.47;;;18.98;83.79
20105;BME280;10212;42.714;23.310;2022-07-29T04:19:54;95399.56;;;19.45;81.50
20105;BME280;10212;42.714;23.310;2022-07-29T04:24:55;95396.53;;;19.31;81.03
20105;BME280;10212;42.714;23.310;2022-07-29T04:29:55;95400.94;;;19.47;80.26
20105;BME280;10212;42.714;23.310;2022-07-29T04:34:56;95410.44;;;19.48;80.06
20105;BME280;10212;42.714;23.310;2022-07-29T04:39:56;95420.22;;;19.48;79.58
20105;BME280;10212;42.714;23.310;2022-07-29T04:44:57;95410.47;;;20.24;76.02
20105;BME280;10212;42.714;23.310;2022-07-29T04:49:57;95414.13;;;20.18;75.54
20105;BME280;10212;42.714;23.310;2022-07-29T04:54:58;95426.94;;;19.99;76.10
20105;BME280;10212;42.714;23.310;2022-07-29T04:59:59;95424.13;;;20.06;76.47
20105;BME280;10212;42.714;23.310;2022-07-29T05:05:00;95426.38;;;20.30;74.85
20105;BME280;10212;42.714;23.310;2022-07-29T05:10:00;95421.56;;;20.21;74.70
20105;BME280;10212;42.714;23.310;2022-07-29T05:15:01;95425.81;;;20.28;73.22
20105;BME280;10212;42.714;23.310;2022-07-29T05:20:02;95432.31;;;20.58;72.24
20105;BME280;10212;42.714;23.310;2022-07-29T05:25:02;95432.94;;;20.81;71.16
20105;BME280;10212;42.714;23.310;2022-07-29T05:30:03;95428.44;;;20.81;70.30
20105;BME280;10212;42.714;23.310;2022-07-29T05:35:04;95430.28;;;20.81;70.63
20105;BME280;10212;42.714;23.310;2022-07-29T05:40:05;95430.81;;;20.78;70.96
20105;BME280;10212;42.714;23.310;2022-07-29T05:45:06;95436.53;;;20.54;71.54
20105;BME280;10212;42.714;23.310;2022-07-29T05:50:07;95445.53;;;20.53;72.14
20105;BME280;10212;42.714;23.310;2022-07-29T05:55:08;95442.97;;;20.73;70.88
20105;BME280;10212;42.714;23.310;2022-07-29T06:00:09;95437.63;;;20.58;70.77
20105;BME280;10212;42.714;23.310;2022-07-29T06:05:10;95442.47;;;20.77;70.12
20105;BME280;10212;42.714;23.310;2022-07-29T06:10:10;95446.22;;;20.91;70.19
20105;BME280;10212;42.714;23.310;2022-07-29T06:15:11;95439.41;;;21.06;69.87
20105;BME280;10212;42.714;23.310;2022-07-29T06:20:12;95440.78;;;21.19;68.63
20105;BME280;10212;42.714;23.310;2022-07-29T06:25:12;95435.50;;;21.29;68.65
20105;BME280;10212;42.714;23.310;2022-07-29T06:30:13;95440.53;;;21.36;67.42
20105;BME280;10212;42.714;23.310;2022-07-29T06:35:14;95440.28;;;21.59;67.12
20105;BME280;10212;42.714;23.310;2022-07-29T06:40:15;95434.97;;;21.74;67.07
20105;BME280;10212;42.714;23.310;2022-07-29T06:45:34;95431.28;;;21.80;66.36
20105;BME280;10212;42.714;23.310;2022-07-29T06:50:34;95433.09;;;22.11;65.18
20105;BME280;10212;42.714;23.310;2022-07-29T06:55:35;95432.53;;;22.30;64.37
20105;BME280;10212;42.714;23.310;2022-07-29T07:00:37;95425.09;;;22.27;64.36
20105;BME280;10212;42.714;23.310;2022-07-29T07:05:38;95420.78;;;22.52;64.40
20105;BME280;10212;42.714;23.310;2022-07-29T07:10:39;95413.81;;;22.72;62.78
20105;BME280;10212;42.714;23.310;2022-07-29T07:15:40;95417.47;;;22.92;59.99
20105;BME280;10212;42.714;23.310;2022-07-29T07:20:41;95420.13;;;22.92;60.38
20105;BME280;10212;42.714;23.310;2022-07-29T07:25:41;95424.25;;;23.13;59.49
20105;BME280;10212;42.714;23.310;2022-07-29T07:30:42;95420.41;;;23.30;58.66
20105;BME280;10212;42.714;23.310;2022-07-29T07:35:42;95415.63;;;23.32;57.74
20105;BME280;10212;42.714;23.310;2022-07-29T07:40:44;95401.63;;;23.56;57.42
20105;BME280;10212;42.714;23.310;2022-07-29T07:45:46;95412.59;;;23.79;57.37
20105;BME280;10212;42.714;23.310;2022-07-29T07:50:47;95407.59;;;24.02;56.17
20105;BME280;10212;42.714;23.310;2022-07-29T07:55:49;95409.06;;;24.19;55.03
20105;BME280;10212;42.714;23.310;2022-07-29T08:00:49;95412.25;;;24.21;56.09
20105;BME280;10212;42.714;23.310;2022-07-29T08:05:50;95404.84;;;24.42;55.23
20105;BME280;10212;42.714;23.310;2022-07-29T08:10:51;95401.94;;;24.39;55.80
20105;BME280;10212;42.714;23.310;2022-07-29T08:15:52;95401.63;;;24.65;53.86
20105;BME280;10212;42.714;23.310;2022-07-29T08:21:00;95401.84;;;24.68;54.51
20105;BME280;10212;42.714;23.310;2022-07-29T08:26:00;95399.34;;;24.77;53.19
20105;BME280;10212;42.714;23.310;2022-07-29T08:31:01;95393.47;;;25.00;52.45
20105;BME280;10212;42.714;23.310;2022-07-29T08:36:02;95398.38;;;24.92;52.80
20105;BME280;10212;42.714;23.310;2022-07-29T08:41:02;95397.16;;;25.23;51.45
20105;BME280;10212;42.714;23.310;2022-07-29T08:46:03;95390.69;;;25.44;50.55
20105;BME280;10212;42.714;23.310;2022-07-29T08:51:07;95387.59;;;25.56;49.82
20105;BME280;10212;42.714;23.310;2022-07-29T08:56:11;95387.34;;;25.71;49.00
20105;BME280;10212;42.714;23.310;2022-07-29T09:01:14;95385.72;;;25.89;48.21
20105;BME280;10212;42.714;23.310;2022-07-29T09:06:18;95378.19;;;26.06;47.72
20105;BME280;10212;42.714;23.310;2022-07-29T09:11:18;95373.94;;;26.05;47.43
20105;BME280;10212;42.714;23.310;2022-07-29T09:16:19;95377.44;;;26.33;46.26
20105;BME280;10212;42.714;23.310;2022-07-29T09:21:19;95375.06;;;26.60;46.14
20105;BME280;10212;42.714;23.310;2022-07-29T09:26:44;95372.06;;;26.76;45.31
20105;BME280;10212;42.714;23.310;2022-07-29T09:31:50;95370.91;;;27.05;43.79
20105;BME280;10212;42.714;23.310;2022-07-29T09:36:52;95366.91;;;27.16;43.16
20105;BME280;10212;42.714;23.310;2022-07-29T09:41:56;95371.16;;;27.17;43.30
20105;BME280;10212;42.714;23.310;2022-07-29T09:46:59;95366.41;;;27.37;42.54
20105;BME280;10212;42.714;23.310;2022-07-29T09:52:09;95354.53;;;27.52;41.89
20105;BME280;10212;42.714;23.310;2022-07-29T09:57:26;95347.28;;;27.76;42.10
20105;BME280;10212;42.714;23.310;2022-07-29T10:02:33;95353.13;;;27.78;42.29
20105;BME280;10212;42.714;23.310;2022-07-29T11:48:48;95244.00;;;30.77;34.92
20105;BME280;10212;42.714;23.310;2022-07-29T11:53:50;95247.16;;;31.00;35.48
20105;BME280;10212;42.714;23.310;2022-07-29T12:49:45;95199.22;;;33.01;30.53
20105;BME280;10212;42.714;23.310;2022-07-29T12:54:48;95201.38;;;32.79;30.79
20105;BME280;10212;42.714;23.310;2022-07-29T13:05:09;95189.88;;;32.12;31.47
20105;BME280;10212;42.714;23.310;2022-07-29T13:10:15;95176.88;;;32.43;30.81
20105;BME280;10212;42.714;23.310;2022-07-29T13:15:16;95174.50;;;32.83;30.37
20105;BME280;10212;42.714;23.310;2022-07-29T13:20:17;95175.50;;;33.23;29.71
20105;BME280;10212;42.714;23.310;2022-07-29T13:25:26;95171.91;;;33.51;29.10
20105;BME280;10212;42.714;23.310;2022-07-29T13:30:27;95173.81;;;33.83;28.28
20105;BME280;10212;42.714;23.310;2022-07-29T13:35:28;95153.13;;;33.91;29.00
20105;BME280;10212;42.714;23.310;2022-07-29T13:40:29;95147.84;;;34.18;28.71
20105;BME280;10212;42.714;23.310;2022-07-29T13:45:30;95156.47;;;34.04;28.20
20105;BME280;10212;42.714;23.310;2022-07-29T13:50:31;95147.22;;;33.69;28.57
20105;BME280;10212;42.714;23.310;2022-07-29T13:55:32;95150.09;;;33.76;28.87
20105;BME280;10212;42.714;23.310;2022-07-29T14:00:32;95152.00;;;33.60;29.51
20105;BME280;10212;42.714;23.310;2022-07-29T14:05:32;95149.75;;;33.78;29.13
20105;BME280;10212;42.714;23.310;2022-07-29T14:10:33;95160.47;;;33.58;28.85
20105;BME280;10212;42.714;23.310;2022-07-29T14:15:33;95160.84;;;33.40;29.55
20105;BME280;10212;42.714;23.310;2022-07-29T14:20:34;95152.25;;;33.18;30.20
20105;BME280;10212;42.714;23.310;2022-07-29T14:25:34;95146.00;;;31.99;31.17
20105;BME280;10212;42.714;23.310;2022-07-29T14:30:35;95146.84;;;32.16;31.48
20105;BME280;10212;42.714;23.310;2022-07-29T14:35:35;95154.25;;;32.19;31.35
20105;BME280;10212;42.714;23.310;2022-07-29T14:40:36;95148.78;;;32.16;31.38
20105;BME280;10212;42.714;23.310;2022-07-29T14:45:36;95144.59;;;32.47;31.00
20105;BME280;10212;42.714;23.310;2022-07-29T14:50:37;95153.56;;;32.80;30.11
20105;BME280;10212;42.714;23.310;2022-07-29T14:55:38;95151.94;;;32.91;30.58
20105;BME280;10212;42.714;23.310;2022-07-29T15:00:39;95150.00;;;33.08;30.55
20105;BME280;10212;42.714;23.310;2022-07-29T15:05:40;95140.75;;;32.77;30.26
20105;BME280;10212;42.714;23.310;2022-07-29T15:10:40;95141.97;;;32.63;30.17
20105;BME280;10212;42.714;23.310;2022-07-29T15:15:40;95141.91;;;32.18;30.88
20105;BME280;10212;42.714;23.310;2022-07-29T15:20:42;95138.13;;;32.07;30.54
20105;BME280;10212;42.714;23.310;2022-07-29T15:25:42;95136.53;;;32.06;30.74
20105;BME280;10212;42.714;23.310;2022-07-29T15:30:42;95126.66;;;32.10;30.19
20105;BME280;10212;42.714;23.310;2022-07-29T15:35:43;95131.88;;;31.65;30.98
20105;BME280;10212;42.714;23.310;2022-07-29T15:40:44;95135.81;;;31.55;30.90
20105;BME280;10212;42.714;23.310;2022-07-29T15:45:45;95129.53;;;31.51;30.96
20105;BME280;10212;42.714;23.310;2022-07-29T15:51:05;95133.78;;;31.39;30.72
20105;BME280;10212;42.714;23.310;2022-07-29T15:56:05;95136.00;;;30.66;32.47
20105;BME280;10212;42.714;23.310;2022-07-29T16:01:05;95139.34;;;30.29;32.59
20105;BME280;10212;42.714;23.310;2022-07-29T16:06:06;95130.69;;;30.23;33.01
20105;BME280;10212;42.714;23.310;2022-07-29T16:11:06;95135.16;;;29.97;33.86
20105;BME280;10212;42.714;23.310;2022-07-29T16:16:07;95139.59;;;29.93;33.34
20105;BME280;10212;42.714;23.310;2022-07-29T16:21:08;95149.22;;;29.73;34.12
20105;BME280;10212;42.714;23.310;2022-07-29T16:26:08;95148.66;;;29.58;34.04
20105;BME280;10212;42.714;23.310;2022-07-29T16:31:08;95157.25;;;29.43;34.81
20105;BME280;10212;42.714;23.310;2022-07-29T16:36:09;95156.22;;;29.26;35.20
20105;BME280;10212;42.714;23.310;2022-07-29T16:41:09;95162.25;;;29.23;35.25
20105;BME280;10212;42.714;23.310;2022-07-29T16:46:10;95163.38;;;29.13;35.50
20105;BME280;10212;42.714;23.310;2022-07-29T16:51:11;95168.47;;;29.06;35.91
20105;BME280;10212;42.714;23.310;2022-07-29T16:56:11;95166.56;;;28.97;36.12
20105;BME280;10212;42.714;23.310;2022-07-29T17:01:12;95161.34;;;28.92;35.96
20105;BME280;10212;42.714;23.310;2022-07-29T17:06:12;95167.22;;;28.85;36.05
20105;BME280;10212;42.714;23.310;2022-07-29T17:11:12;95161.34;;;28.92;35.81
20105;BME280;10212;42.714;23.310;2022-07-29T17:16:13;95155.53;;;28.99;35.13
20105;BME280;10212;42.714;23.310;2022-07-29T17:21:15;95161.56;;;28.69;35.83
20105;BME280;10212;42.714;23.310;2022-07-29T17:26:15;95165.69;;;28.67;35.33
20105;BME280;10212;42.714;23.310;2022-07-29T17:31:16;95175.94;;;28.47;35.94
20105;BME280;10212;42.714;23.310;2022-07-29T17:36:16;95173.59;;;28.36;36.24
20105;BME280;10212;42.714;23.310;2022-07-29T17:41:24;95184.13;;;28.24;36.01
20105;BME280;10212;42.714;23.310;2022-07-29T17:46:25;95174.81;;;28.03;36.68
20105;BME280;10212;42.714;23.310;2022-07-29T17:51:26;95177.66;;;27.89;36.76
20105;BME280;10212;42.714;23.310;2022-07-29T17:56:27;95171.44;;;27.71;37.42
20105;BME280;10212;42.714;23.310;2022-07-29T18:01:27;95183.53;;;27.68;37.50
20105;BME280;10212;42.714;23.310;2022-07-29T18:06:28;95176.63;;;27.67;37.38
20105;BME280;10212;42.714;23.310;2022-07-29T18:11:28;95188.25;;;27.54;37.88
20105;BME280;10212;42.714;23.310;2022-07-29T18:16:30;95192.91;;;27.39;37.94
20105;BME280;10212;42.714;23.310;2022-07-29T18:21:31;95201.69;;;27.31;38.16
20105;BME280;10212;42.714;23.310;2022-07-29T18:26:31;95203.84;;;27.20;38.46
20105;BME280;10212;42.714;23.310;2022-07-29T18:31:32;95215.22;;;27.03;39.37
20105;BME280;10212;42.714;23.310;2022-07-29T18:36:32;95224.59;;;26.91;39.54
20105;BME280;10212;42.714;23.310;2022-07-29T18:41:33;95214.09;;;26.72;39.78
20105;BME280;10212;42.714;23.310;2022-07-29T18:46:34;95223.72;;;26.59;40.30
20105;BME280;10212;42.714;23.310;2022-07-29T18:51:35;95230.53;;;26.42;40.28
20105;BME280;10212;42.714;23.310;2022-07-29T18:56:35;95238.44;;;26.47;39.94
20105;BME280;10212;42.714;23.310;2022-07-29T19:01:36;95234.06;;;26.52;39.61
20105;BME280;10212;42.714;23.310;2022-07-29T19:06:37;95242.38;;;26.50;38.99
20105;BME280;10212;42.714;23.310;2022-07-29T19:11:38;95240.63;;;26.45;39.23
20105;BME280;10212;42.714;23.310;2022-07-29T19:16:39;95251.63;;;26.30;39.49
20105;BME280;10212;42.714;23.310;2022-07-29T19:21:39;95251.84;;;26.19;40.58
20105;BME280;10212;42.714;23.310;2022-07-29T19:26:40;95267.59;;;25.93;41.26
20105;BME280;10212;42.714;23.310;2022-07-29T19:31:46;95263.72;;;25.85;41.88
20105;BME280;10212;42.714;23.310;2022-07-29T19:36:46;95267.88;;;25.63;42.69
20105;BME280;10212;42.714;23.310;2022-07-29T19:41:47;95267.94;;;25.58;42.58
20105;BME280;10212;42.714;23.310;2022-07-29T19:46:47;95279.19;;;25.55;42.59
20105;BME280;10212;42.714;23.310;2022-07-29T19:51:48;95266.75;;;25.50;42.82
20105;BME280;10212;42.714;23.310;2022-07-29T19:56:48;95268.53;;;25.55;42.77
20105;BME280;10212;42.714;23.310;2022-07-29T20:01:49;95268.31;;;25.37;43.96
20105;BME280;10212;42.714;23.310;2022-07-29T20:06:49;95270.75;;;25.33;43.61
20105;BME280;10212;42.714;23.310;2022-07-29T20:11:52;95259.41;;;25.27;43.75
20105;BME280;10212;42.714;23.310;2022-07-29T20:16:53;95263.53;;;25.20;43.82
20105;BME280;10212;42.714;23.310;2022-07-29T20:21:53;95270.19;;;25.03;44.33
20105;BME280;10212;42.714;23.310;2022-07-29T20:26:54;95268.41;;;24.98;44.70
20105;BME280;10212;42.714;23.310;2022-07-29T20:31:54;95272.16;;;24.97;44.76
20105;BME280;10212;42.714;23.310;2022-07-29T20:36:55;95270.34;;;24.92;45.09
20105;BME280;10212;42.714;23.310;2022-07-29T20:41:56;95278.06;;;24.94;45.15
20105;BME280;10212;42.714;23.310;2022-07-29T20:46:57;95276.41;;;24.79;45.58
20105;BME280;10212;42.714;23.310;2022-07-29T20:51:57;95281.94;;;24.83;45.74
20105;BME280;10212;42.714;23.310;2022-07-29T20:56:58;95285.78;;;24.76;45.88
20105;BME280;10212;42.714;23.310;2022-07-29T21:01:58;95283.69;;;24.73;46.18
20105;BME280;10212;42.714;23.310;2022-07-29T21:06:59;95273.09;;;24.68;46.20
20105;BME280;10212;42.714;23.310;2022-07-29T21:12:00;95274.34;;;24.56;46.75
20105;BME280;10212;42.714;23.310;2022-07-29T21:17:01;95275.25;;;24.47;46.85
20105;BME280;10212;42.714;23.310;2022-07-29T21:22:05;95281.97;;;24.44;46.94
20105;BME280;10212;42.714;23.310;2022-07-29T21:27:05;95278.34;;;24.35;47.26
20105;BME280;10212;42.714;23.310;2022-07-29T21:32:24;95281.22;;;24.19;48.01
20105;BME280;10212;42.714;23.310;2022-07-29T21:37:25;95284.56;;;24.05;48.59
20105;BME280;10212;42.714;23.310;2022-07-29T21:42:26;95285.78;;;23.89;49.21
20105;BME280;10212;42.714;23.310;2022-07-29T21:47:26;95292.53;;;23.81;49.32
20105;BME280;10212;42.714;23.310;2022-07-29T21:52:27;95291.28;;;23.73;49.45
20105;BME280;10212;42.714;23.310;2022-07-29T21:57:27;95284.72;;;23.65;49.58
20105;BME280;10212;42.714;23.310;2022-07-29T22:02:28;95288.22;;;23.60;49.65
20105;BME280;10212;42.714;23.310;2022-07-29T22:07:28;95283.66;;;23.36;50.39
20105;BME280;10212;42.714;23.310;2022-07-29T22:12:29;95286.66;;;23.24;50.59
20105;BME280;10212;42.714;23.310;2022-07-29T22:17:29;95294.38;;;23.21;50.23
20105;BME280;10212;42.714;23.310;2022-07-29T22:22:30;95288.59;;;23.19;50.25
20105;BME280;10212;42.714;23.310;2022-07-29T22:27:32;95295.81;;;23.13;50.04
20105;BME280;10212;42.714;23.310;2022-07-29T22:32:33;95295.84;;;23.08;49.47
20105;BME280;10212;42.714;23.310;2022-07-29T22:37:34;95302.38;;;23.21;48.69
20105;BME280;10212;42.714;23.310;2022-07-29T22:42:34;95305.03;;;23.21;48.54
20105;BME280;10212;42.714;23.310;2022-07-29T22:47:35;95298.97;;;23.15;48.71
20105;BME280;10212;42.714;23.310;2022-07-29T22:52:35;95294.91;;;23.23;48.01
20105;BME280;10212;42.714;23.310;2022-07-29T22:57:36;95296.03;;;23.17;47.71
20105;BME280;10212;42.714;23.310;2022-07-29T23:02:36;95294.63;;;23.24;47.38
20105;BME280;10212;42.714;23.310;2022-07-29T23:07:37;95294.63;;;23.24;47.27
20105;BME280;10212;42.714;23.310;2022-07-29T23:12:38;95292.22;;;23.28;47.30
20105;BME280;10212;42.714;23.310;2022-07-29T23:17:38;95294.91;;;23.23;47.33
20105;BME280;10212;42.714;23.310;2022-07-29T23:22:39;95301.88;;;23.19;47.31
20105;BME280;10212;42.714;23.310;2022-07-29T23:27:40;95293.06;;;23.23;47.12
20105;BME280;10212;42.714;23.310;2022-07-29T23:32:40;95293.19;;;23.08;47.67
20105;BME280;10212;42.714;23.310;2022-07-29T23:37:41;95291.03;;;23.10;47.59
20105;BME280;10212;42.714;23.310;2022-07-29T23:42:42;95288.72;;;22.98;48.01
20105;BME280;10212;42.714;23.310;2022-07-29T23:47:43;95301.97;;;23.03;47.85
20105;BME280;10212;42.714;23.310;2022-07-29T23:52:44;95293.97;;;23.08;47.70
20105;BME280;10212;42.714;23.310;2022-07-29T23:57:45;95295.53;;;23.15;47.80
